Time;durP1;ratioP1;P1;durP2;ratioP2;P2;SDS_P1;SDS_P2;PMS_P1;PMS_P2;Temp;Humidity;BMP_temperature;BMP_pressure;BME280_temperature;BME280_humidity;BME280_pressure;Samples;Min_cycle;Max_cycle;Signal;HPM_P1;HPM_P2
2022/10/14 00:02:05;;;;;;;36.40;10.35;;;9.70;95.50;;;;;;5037774;28;20080;-76
2022/10/14 00:04:30;;;;;;;95.35;14.20;;;9.70;95.40;;;;;;5054206;28;20074;-77
2022/10/14 00:06:56;;;;;;;127.70;15.90;;;9.70;95.50;;;;;;5054241;28;20052;-78
2022/10/14 00:09:22;;;;;;;121.03;16.42;;;9.60;95.50;;;;;;5054021;28;20041;-71
2022/10/14 00:11:48;;;;;;;194.77;21.38;;;9.60;95.70;;;;;;5054138;28;20045;-74
2022/10/14 00:14:18;;;;;;;93.60;16.45;;;9.60;95.80;;;;;;5054090;28;20120;-72
2022/10/14 00:16:46;;;;;;;247.77;26.10;;;9.60;95.80;;;;;;5054006;28;20087;-73
2022/10/14 00:19:12;;;;;;;177.57;20.40;;;9.60;95.90;;;;;;5054236;28;20392;-74
2022/10/14 00:21:40;;;;;;;85.85;14.55;;;9.60;95.90;;;;;;5053962;28;20040;-73
2022/10/14 00:24:07;;;;;;;72.70;14.88;;;9.60;95.90;;;;;;5037193;28;20138;-76
2022/10/14 00:26:35;;;;;;;73.03;13.75;;;9.60;95.90;;;;;;5053871;28;20037;-75
2022/10/14 00:29:03;;;;;;;50.20;11.40;;;9.70;95.90;;;;;;5067108;28;20143;-77
2022/10/14 00:31:29;;;;;;;80.72;13.02;;;9.70;96.00;;;;;;5073798;28;20122;-74
2022/10/14 00:33:55;;;;;;;39.25;10.07;;;9.70;96.00;;;;;;5057128;28;20080;-73
2022/10/14 00:36:23;;;;;;;59.67;12.35;;;9.70;95.90;;;;;;5057221;28;20515;-75
2022/10/14 00:38:49;;;;;;;52.35;11.15;;;9.70;95.80;;;;;;5073986;28;20717;-76
2022/10/14 00:41:18;;;;;;;91.55;12.98;;;9.70;95.90;;;;;;5073827;28;20044;-74
2022/10/14 00:44:11;;;;;;;65.40;10.48;;;9.80;95.70;;;;;;5073555;28;20520;-74
2022/10/14 00:46:39;;;;;;;107.93;15.13;;;9.80;95.70;;;;;;5073759;28;20385;-74
2022/10/14 00:49:14;;;;;;;93.32;13.57;;;9.80;95.80;;;;;;5073345;28;20060;-73
2022/10/14 00:51:47;;;;;;;69.30;11.77;;;9.80;95.70;;;;;;5057051;28;20405;-75
2022/10/14 00:54:15;;;;;;;310.15;25.08;;;9.80;95.80;;;;;;5073306;28;20036;-74
2022/10/14 00:56:43;;;;;;;242.95;21.75;;;9.80;95.90;;;;;;5073322;28;20041;-73
2022/10/14 00:59:10;;;;;;;151.23;16.27;;;9.80;95.80;;;;;;5073557;28;20041;-77
2022/10/14 01:01:36;;;;;;;148.27;15.32;;;9.80;95.90;;;;;;5073102;28;20090;-74
2022/10/14 01:04:02;;;;;;;241.73;22.27;;;9.80;95.90;;;;;;5073390;28;20040;-77
2022/10/14 01:06:33;;;;;;;199.82;16.83;;;9.80;95.90;;;;;;5073190;28;20062;-76
2022/10/14 01:09:30;;;;;;;137.13;14.88;;;9.80;95.90;;;;;;5073315;28;20040;-74
2022/10/14 01:12:24;;;;;;;100.88;14.25;;;9.80;95.90;;;;;;5072995;28;20055;-74
2022/10/14 01:15:10;;;;;;;52.65;11.05;;;9.80;95.90;;;;;;5073218;28;20101;-75
2022/10/14 01:18:07;;;;;;;59.00;12.40;;;9.80;95.90;;;;;;5051941;28;20554;-75
2022/10/14 01:20:59;;;;;;;157.93;16.70;;;9.80;95.90;;;;;;5073088;28;20121;-77
2022/10/14 01:23:28;;;;;;;171.18;17.38;;;9.80;95.90;;;;;;5056131;28;20043;-73
2022/10/14 01:26:14;;;;;;;319.48;27.63;;;9.80;95.90;;;;;;5072706;28;20047;-76
2022/10/14 01:29:17;;;;;;;103.72;13.48;;;9.80;95.90;;;;;;5072981;28;20097;-73
2022/10/14 01:32:07;;;;;;;162.52;13.23;;;9.80;95.90;;;;;;5072691;28;20515;-71
2022/10/14 01:34:38;;;;;;;438.80;31.50;;;9.90;96.00;;;;;;5055840;28;20090;-74
2022/10/14 01:37:15;;;;;;;205.40;19.55;;;9.90;96.00;;;;;;5072520;28;20036;-71
2022/10/14 01:39:46;;;;;;;218.05;20.17;;;9.90;96.00;;;;;;5072496;28;20052;-73
2022/10/14 01:42:16;;;;;;;263.90;20.63;;;10.00;96.00;;;;;;5072445;28;20037;-72
2022/10/14 01:44:50;;;;;;;423.70;34.33;;;10.00;96.00;;;;;;5072107;28;20389;-74
2022/10/14 01:47:19;;;;;;;331.83;29.50;;;10.00;96.00;;;;;;5072354;28;20115;-75
2022/10/14 01:49:51;;;;;;;271.38;20.70;;;9.90;95.90;;;;;;5072076;28;20052;-75
2022/10/14 01:52:21;;;;;;;136.65;14.02;;;9.90;96.00;;;;;;5072497;28;20469;-75
2022/10/14 01:54:51;;;;;;;75.55;11.43;;;9.80;95.80;;;;;;5072133;28;20102;-76
2022/10/14 01:57:22;;;;;;;111.10;13.45;;;9.80;95.90;;;;;;5072484;28;20067;-76
2022/10/14 01:59:50;;;;;;;83.53;12.20;;;9.80;95.90;;;;;;5072446;28;20032;-76
2022/10/14 02:02:22;;;;;;;78.47;13.43;;;9.80;95.80;;;;;;5072115;28;20048;-74
2022/10/14 02:04:48;;;;;;;26.05;7.07;;;9.70;95.70;;;;;;5072249;28;20040;-75
2022/10/14 02:07:28;;;;;;;61.17;11.82;;;9.70;95.80;;;;;;5055671;28;20408;-75
2022/10/14 02:10:03;;;;;;;113.88;15.00;;;9.70;95.80;;;;;;5072156;28;20401;-74
2022/10/14 02:12:49;;;;;;;280.95;22.45;;;9.60;95.80;;;;;;5071897;28;20174;-74
2022/10/14 02:15:27;;;;;;;98.63;12.00;;;9.60;95.80;;;;;;5072091;28;20417;-73
2022/10/14 02:18:34;;;;;;;105.70;10.93;;;9.60;95.80;;;;;;5071896;28;20040;-74
2022/10/14 02:21:15;;;;;;;47.63;8.60;;;9.60;95.70;;;;;;5071277;28;20504;-73
2022/10/14 02:23:50;;;;;;;316.95;23.42;;;9.60;95.70;;;;;;5055152;28;20040;-75
2022/10/14 02:26:17;;;;;;;151.88;15.38;;;9.60;95.60;;;;;;5055303;28;20063;-75
2022/10/14 02:28:45;;;;;;;92.00;12.80;;;9.50;95.60;;;;;;5055236;28;20447;-77
2022/10/14 02:31:14;;;;;;;42.25;10.32;;;9.40;95.50;;;;;;5071566;28;20044;-74
2022/10/14 02:33:42;;;;;;;192.88;20.80;;;9.40;95.60;;;;;;5071690;28;20048;-74
2022/10/14 02:36:11;;;;;;;178.65;18.45;;;9.30;95.50;;;;;;5071674;28;20032;-73
2022/10/14 02:38:38;;;;;;;179.50;19.67;;;9.30;95.60;;;;;;5071658;28;20527;-74
2022/10/14 02:41:07;;;;;;;71.70;12.30;;;9.30;95.60;;;;;;5071837;28;20110;-76
2022/10/14 02:43:32;;;;;;;159.60;17.58;;;9.30;95.70;;;;;;5071533;28;20044;-76
2022/10/14 02:46:01;;;;;;;93.18;14.20;;;9.20;95.70;;;;;;5055181;28;20097;-74
2022/10/14 02:48:26;;;;;;;133.85;20.85;;;9.10;95.80;;;;;;5071378;28;20060;-76
2022/10/14 02:50:52;;;;;;;170.77;21.13;;;9.10;95.90;;;;;;5071480;28;20051;-71
2022/10/14 02:53:18;;;;;;;210.20;23.33;;;9.20;95.90;;;;;;5055090;28;20037;-74
2022/10/14 02:55:43;;;;;;;197.13;23.58;;;9.10;96.10;;;;;;5071446;28;20074;-73
2022/10/14 02:58:09;;;;;;;99.93;17.15;;;9.20;96.10;;;;;;5074042;28;20041;-75
2022/10/14 03:00:35;;;;;;;72.13;16.90;;;9.20;96.00;;;;;;5075526;28;20058;-76
2022/10/14 03:03:01;;;;;;;120.38;20.20;;;9.20;96.10;;;;;;5075503;28;20044;-75
2022/10/14 03:05:26;;;;;;;58.63;16.48;;;9.30;96.30;;;;;;5075382;28;20040;-74
2022/10/14 03:07:52;;;;;;;244.63;27.52;;;9.30;96.30;;;;;;5075365;28;20044;-73
2022/10/14 03:10:18;;;;;;;51.85;15.57;;;9.20;96.40;;;;;;5075529;28;20094;-73
2022/10/14 03:12:44;;;;;;;115.78;19.60;;;9.30;96.50;;;;;;5075308;28;20127;-75
2022/10/14 03:15:10;;;;;;;47.58;13.63;;;9.40;96.50;;;;;;5075143;28;20091;-76
2022/10/14 03:17:35;;;;;;;276.15;30.35;;;9.40;96.50;;;;;;5075455;28;20036;-77
2022/10/14 03:20:03;;;;;;;211.32;25.38;;;9.40;96.50;;;;;;5075188;28;20499;-71
2022/10/14 03:22:29;;;;;;;108.15;21.10;;;9.40;96.60;;;;;;5075273;28;20488;-75
2022/10/14 03:24:55;;;;;;;225.35;29.63;;;9.50;96.60;;;;;;5074947;28;20040;-71
2022/10/14 03:27:21;;;;;;;159.80;24.27;;;9.50;96.70;;;;;;5058637;28;20039;-72
2022/10/14 03:29:46;;;;;;;131.88;20.25;;;9.60;96.80;;;;;;5058446;28;20084;-74
2022/10/14 03:32:12;;;;;;;198.98;28.30;;;9.60;96.80;;;;;;5074924;28;20392;-72
2022/10/14 03:34:38;;;;;;;160.75;27.50;;;9.70;97.10;;;;;;5074992;28;20129;-71
2022/10/14 03:37:03;;;;;;;113.88;23.85;;;9.70;97.20;;;;;;5074798;28;20047;-76
2022/10/14 03:39:29;;;;;;;175.13;27.77;;;9.80;97.00;;;;;;5074929;28;20040;-76
2022/10/14 03:41:55;;;;;;;124.72;23.65;;;9.90;97.30;;;;;;5058284;28;20032;-74
2022/10/14 03:44:21;;;;;;;146.80;25.08;;;10.00;97.10;;;;;;5041345;28;20417;-72
2022/10/14 03:46:47;;;;;;;79.45;20.30;;;10.00;97.30;;;;;;5058019;28;20032;-73
2022/10/14 03:49:13;;;;;;;94.95;22.30;;;10.10;97.20;;;;;;5074504;28;20055;-74
2022/10/14 03:51:38;;;;;;;281.10;38.05;;;10.10;97.20;;;;;;5074524;28;20086;-74
2022/10/14 03:54:04;;;;;;;163.80;30.08;;;10.10;97.10;;;;;;5074423;28;20484;-73
2022/10/14 03:56:30;;;;;;;170.38;29.38;;;10.10;97.20;;;;;;5074432;28;20081;-76
2022/10/14 03:58:56;;;;;;;88.07;25.58;;;10.20;97.20;;;;;;5075665;28;20094;-73
2022/10/14 04:01:21;;;;;;;298.27;37.53;;;10.20;97.20;;;;;;5074347;28;20075;-73
2022/10/14 04:03:49;;;;;;;160.55;28.23;;;10.30;97.20;;;;;;5074481;28;20041;-75
2022/10/14 04:06:15;;;;;;;335.52;42.78;;;10.30;97.20;;;;;;5057918;28;20105;-77
2022/10/14 04:08:41;;;;;;;313.75;39.13;;;10.30;97.00;;;;;;5073712;28;20068;-75
2022/10/14 04:11:08;;;;;;;367.52;43.00;;;10.50;97.50;;;;;;5074180;28;20070;-72
2022/10/14 04:13:35;;;;;;;427.00;47.20;;;10.50;97.80;;;;;;5057440;28;20123;-71
2022/10/14 04:16:06;;;;;;;204.38;32.25;;;10.50;97.90;;;;;;5074011;28;20040;-75
2022/10/14 04:18:32;;;;;;;198.27;30.58;;;10.50;97.70;;;;;;5074323;28;20037;-75
2022/10/14 04:21:03;;;;;;;159.23;25.25;;;10.50;97.90;;;;;;5057338;28;20051;-76
2022/10/14 04:23:29;;;;;;;220.13;29.30;;;10.50;97.60;;;;;;5074294;28;20048;-75
2022/10/14 04:25:54;;;;;;;188.50;24.88;;;10.50;97.70;;;;;;5057094;28;20496;-75
2022/10/14 04:28:20;;;;;;;272.73;30.48;;;10.40;97.70;;;;;;5073883;28;20041;-76
2022/10/14 04:30:46;;;;;;;212.93;23.55;;;10.40;97.70;;;;;;5073829;28;20123;-76
2022/10/14 04:33:12;;;;;;;272.23;23.70;;;10.40;97.60;;;;;;5073803;28;20041;-72
2022/10/14 04:35:38;;;;;;;112.10;16.13;;;10.30;97.50;;;;;;5073895;28;20488;-72
2022/10/14 04:38:04;;;;;;;89.22;13.40;;;10.20;97.40;;;;;;5057060;28;20037;-73
2022/10/14 04:40:30;;;;;;;182.95;19.67;;;10.20;97.30;;;;;;5056895;28;20044;-74
2022/10/14 04:42:57;;;;;;;165.15;18.13;;;10.10;97.20;;;;;;5073637;28;20123;-73
2022/10/14 04:45:24;;;;;;;216.73;21.38;;;10.10;97.20;;;;;;5056806;28;20049;-73
2022/10/14 04:47:50;;;;;;;227.95;23.08;;;10.00;97.30;;;;;;5073390;28;20048;-76
2022/10/14 04:50:17;;;;;;;310.30;26.58;;;10.00;97.30;;;;;;5073446;28;20052;-74
2022/10/14 04:52:43;;;;;;;351.73;29.88;;;10.00;97.20;;;;;;5058269;28;20138;-73
2022/10/14 04:55:09;;;;;;;251.05;27.15;;;9.90;97.30;;;;;;5053355;28;20077;-73
2022/10/14 04:57:35;;;;;;;434.50;37.85;;;9.80;97.50;;;;;;5036929;28;20072;-74
2022/10/14 05:00:02;;;;;;;288.83;27.08;;;9.80;97.70;;;;;;5053692;28;20045;-75
2022/10/14 05:02:28;;;;;;;371.67;31.42;;;9.70;97.70;;;;;;5053234;28;20044;-76
2022/10/14 05:04:54;;;;;;;422.40;33.63;;;9.80;97.80;;;;;;5019656;28;20125;-76
2022/10/14 05:07:19;;;;;;;313.60;29.60;;;9.70;97.90;;;;;;5052742;28;20080;-74
2022/10/14 05:09:45;;;;;;;383.42;35.50;;;9.70;98.00;;;;;;5052996;28;20037;-76
2022/10/14 05:12:13;;;;;;;252.27;26.05;;;9.60;98.10;;;;;;5036230;28;20129;-74
2022/10/14 05:14:38;;;;;;;208.88;25.20;;;9.70;98.20;;;;;;5052831;28;20052;-76
2022/10/14 05:17:04;;;;;;;166.07;23.65;;;9.60;98.30;;;;;;5052980;28;20036;-76
2022/10/14 05:19:30;;;;;;;44.88;13.98;;;9.60;98.20;;;;;;5052209;28;20041;-75
2022/10/14 05:21:56;;;;;;;211.23;25.05;;;9.70;98.30;;;;;;5052485;28;20383;-76
2022/10/14 05:24:21;;;;;;;164.60;22.02;;;9.70;98.30;;;;;;5052541;28;20064;-76
2022/10/14 05:26:47;;;;;;;186.73;25.92;;;9.70;98.20;;;;;;5052986;28;20052;-75
2022/10/14 05:29:13;;;;;;;127.32;22.38;;;9.70;98.20;;;;;;5052595;28;20037;-75
2022/10/14 05:31:39;;;;;;;126.82;21.85;;;9.70;98.30;;;;;;5035812;28;20085;-75
2022/10/14 05:34:05;;;;;;;134.50;22.13;;;9.70;98.20;;;;;;5035611;28;20052;-77
2022/10/14 05:36:31;;;;;;;117.55;20.55;;;9.80;98.20;;;;;;5052583;28;20072;-78
2022/10/14 05:38:57;;;;;;;144.50;21.98;;;9.80;98.20;;;;;;5052350;28;20183;-76
2022/10/14 05:41:26;;;;;;;78.97;17.63;;;9.80;98.10;;;;;;5019523;28;20045;-75
2022/10/14 05:43:55;;;;;;;99.22;17.08;;;9.80;98.00;;;;;;5052516;28;20045;-74
2022/10/14 05:46:20;;;;;;;82.38;15.00;;;9.80;98.00;;;;;;5052270;28;20124;-80
2022/10/14 05:49:01;;;;;;;168.98;22.13;;;9.80;98.00;;;;;;5035973;28;20053;-77
2022/10/14 05:51:35;;;;;;;63.40;15.77;;;9.80;98.10;;;;;;5038242;28;20048;-78
2022/10/14 05:54:01;;;;;;;193.70;27.08;;;9.80;98.10;;;;;;5052120;28;20041;-76
2022/10/14 05:56:27;;;;;;;209.63;28.55;;;9.80;98.10;;;;;;5035341;28;20040;-77
2022/10/14 05:59:04;;;;;;;54.90;17.65;;;9.80;98.10;;;;;;5052001;28;20107;-77
2022/10/14 06:01:33;;;;;;;84.53;24.60;;;9.80;98.10;;;;;;5052175;28;20132;-75
2022/10/14 06:03:59;;;;;;;249.35;33.72;;;9.90;98.10;;;;;;5035296;28;20039;-81
2022/10/14 06:06:24;;;;;;;406.95;42.83;;;9.90;98.00;;;;;;5052177;28;20033;-78
2022/10/14 06:08:50;;;;;;;113.85;25.88;;;9.90;98.00;;;;;;5051662;28;20711;-75
2022/10/14 06:11:16;;;;;;;226.27;34.05;;;9.90;98.00;;;;;;5051745;28;20041;-79
2022/10/14 06:13:41;;;;;;;141.65;26.30;;;9.90;98.00;;;;;;5034983;28;20059;-77
2022/10/14 06:16:09;;;;;;;173.30;31.73;;;9.90;98.00;;;;;;5051870;28;20037;-77
2022/10/14 06:18:35;;;;;;;126.63;28.00;;;9.90;97.90;;;;;;5051777;28;20111;-77
2022/10/14 06:21:02;;;;;;;127.57;27.02;;;9.90;97.90;;;;;;5051826;28;20497;-76
2022/10/14 06:23:28;;;;;;;111.15;30.25;;;9.90;97.90;;;;;;5051593;28;20178;-77
2022/10/14 06:25:54;;;;;;;290.50;41.92;;;9.90;97.90;;;;;;5051787;28;20037;-79
2022/10/14 06:28:20;;;;;;;181.80;38.50;;;10.00;98.00;;;;;;5051893;28;20037;-78
2022/10/14 06:30:54;;;;;;;38.85;19.42;;;9.90;97.90;;;;;;5051147;28;20482;-76
2022/10/14 06:33:21;;;;;;;94.50;30.00;;;10.00;97.80;;;;;;5051417;28;20041;-76
2022/10/14 06:35:47;;;;;;;133.65;32.95;;;10.00;97.90;;;;;;5051589;28;20044;-72
2022/10/14 06:38:13;;;;;;;95.30;30.02;;;10.00;97.90;;;;;;5051569;28;20044;-73
2022/10/14 06:40:39;;;;;;;39.63;20.55;;;10.00;97.80;;;;;;5051542;28;20045;-76
2022/10/14 06:43:06;;;;;;;54.50;24.80;;;10.00;97.80;;;;;;5037653;28;20460;-75
2022/10/14 06:45:32;;;;;;;64.40;29.67;;;10.10;97.80;;;;;;5018783;28;20123;-74
2022/10/14 06:47:57;;;;;;;64.80;26.33;;;10.10;97.80;;;;;;5051483;28;20247;-74
2022/10/14 06:50:23;;;;;;;49.15;23.45;;;10.10;97.80;;;;;;5034649;28;20154;-76
2022/10/14 06:52:49;;;;;;;84.88;29.67;;;10.20;97.90;;;;;;5035110;28;20036;-77
2022/10/14 06:55:16;;;;;;;70.40;24.20;;;10.20;97.90;;;;;;5051276;28;20114;-76
2022/10/14 06:57:42;;;;;;;76.78;28.42;;;10.20;97.80;;;;;;5051164;28;20493;-78
2022/10/14 07:00:08;;;;;;;68.93;26.00;;;10.20;97.80;;;;;;5051436;28;20098;-74
2022/10/14 07:02:36;;;;;;;82.03;26.33;;;10.30;97.80;;;;;;5051367;28;20087;-75
2022/10/14 07:05:01;;;;;;;92.93;25.45;;;10.30;97.70;;;;;;5051046;28;20052;-73
2022/10/14 07:07:27;;;;;;;70.45;22.02;;;10.20;97.70;;;;;;5051546;28;20390;-77
2022/10/14 07:09:53;;;;;;;82.40;25.73;;;10.10;97.70;;;;;;5034710;28;20409;-75
2022/10/14 07:12:19;;;;;;;130.10;31.35;;;10.20;97.80;;;;;;5034476;28;20120;-74
2022/10/14 07:14:50;;;;;;;85.05;25.55;;;10.20;97.80;;;;;;5051056;28;20044;-73
2022/10/14 07:17:16;;;;;;;48.08;20.40;;;10.20;97.70;;;;;;5051250;28;20124;-76
2022/10/14 07:19:42;;;;;;;33.60;18.65;;;10.30;97.80;;;;;;5051127;28;20129;-73
2022/10/14 07:22:11;;;;;;;43.50;20.80;;;10.30;97.60;;;;;;5051164;28;20488;-73
2022/10/14 07:24:37;;;;;;;68.28;23.40;;;10.20;97.60;;;;;;5051044;28;20037;-73
2022/10/14 07:27:02;;;;;;;55.72;23.38;;;10.20;97.60;;;;;;5034895;28;20473;-75
2022/10/14 07:29:31;;;;;;;46.00;20.83;;;10.20;97.70;;;;;;5034408;28;20417;-77
2022/10/14 07:32:00;;;;;;;63.20;23.65;;;10.30;97.70;;;;;;5035413;28;20041;-78
2022/10/14 07:34:28;;;;;;;45.45;21.42;;;10.30;97.60;;;;;;5034366;28;20446;-76
2022/10/14 07:36:54;;;;;;;44.33;21.95;;;10.30;97.60;;;;;;5051056;28;20124;-75
2022/10/14 07:39:26;;;;;;;42.45;20.85;;;10.30;97.70;;;;;;5051341;28;20049;-74
2022/10/14 07:41:52;;;;;;;51.03;21.42;;;10.40;97.60;;;;;;5050828;28;20048;-75
2022/10/14 07:44:19;;;;;;;46.90;20.88;;;10.40;97.70;;;;;;5036837;28;20045;-77
2022/10/14 07:46:45;;;;;;;43.22;21.25;;;10.40;97.70;;;;;;5038324;28;20040;-76
2022/10/14 07:49:19;;;;;;;42.75;20.02;;;10.50;97.70;;;;;;5054519;28;20132;-75
2022/10/14 07:51:50;;;;;;;28.35;16.17;;;10.50;97.60;;;;;;5054486;28;20183;-77
2022/10/14 07:54:19;;;;;;;40.13;20.33;;;10.50;97.60;;;;;;5038102;28;20048;-74
2022/10/14 07:56:48;;;;;;;32.20;18.77;;;10.50;97.60;;;;;;5037793;28;20478;-75
2022/10/14 07:59:15;;;;;;;33.15;19.20;;;10.60;97.60;;;;;;5054688;28;20432;-75
2022/10/14 08:01:43;;;;;;;36.70;19.83;;;10.60;97.60;;;;;;5054332;28;20052;-73
2022/10/14 08:04:10;;;;;;;22.55;14.30;;;10.70;97.60;;;;;;5054138;28;20539;-76
2022/10/14 08:06:36;;;;;;;34.90;20.75;;;10.70;97.60;;;;;;5054230;28;20051;-72
2022/10/14 08:09:06;;;;;;;26.77;16.83;;;10.70;97.50;;;;;;5054109;28;20405;-80
2022/10/14 08:11:36;;;;;;;32.70;19.65;;;10.80;97.50;;;;;;5054030;28;20045;-75
2022/10/14 08:14:02;;;;;;;28.60;18.02;;;10.80;97.50;;;;;;5054066;28;20489;-76
2022/10/14 08:16:34;;;;;;;34.60;18.98;;;10.80;97.50;;;;;;5054354;28;20084;-76
2022/10/14 08:19:04;;;;;;;34.47;20.23;;;10.90;97.40;;;;;;5054395;28;20033;-78
2022/10/14 08:21:30;;;;;;;24.88;16.70;;;10.90;97.40;;;;;;5037798;28;20044;-76
2022/10/14 08:23:55;;;;;;;43.90;22.10;;;11.00;97.40;;;;;;5037624;28;20447;-75
2022/10/14 08:26:36;;;;;;;44.47;22.23;;;11.00;97.40;;;;;;5037325;28;20128;-74
2022/10/14 08:29:09;;;;;;;53.10;24.77;;;11.00;97.40;;;;;;5054047;28;20511;-73
2022/10/14 08:31:41;;;;;;;35.20;19.08;;;11.00;97.40;;;;;;5053832;28;20128;-74
2022/10/14 08:34:12;;;;;;;39.83;23.35;;;11.00;97.30;;;;;;5054003;28;20488;-78
2022/10/14 08:36:38;;;;;;;40.00;22.63;;;11.10;97.30;;;;;;5037506;28;20048;-75
2022/10/14 08:39:05;;;;;;;32.35;19.20;;;11.10;97.30;;;;;;5053763;28;20045;-76
2022/10/14 08:41:55;;;;;;;45.30;23.33;;;11.10;97.30;;;;;;5053065;28;20057;-76
2022/10/14 08:44:58;;;;;;;29.02;16.88;;;11.20;97.20;;;;;;5053472;28;20044;-78
2022/10/14 08:47:34;;;;;;;43.83;22.48;;;11.20;97.30;;;;;;5053582;28;20041;-76
2022/10/14 08:50:02;;;;;;;31.27;18.42;;;11.20;97.30;;;;;;5053345;28;20114;-75
2022/10/14 08:52:40;;;;;;;42.70;22.75;;;11.20;97.30;;;;;;5053664;28;20041;-74
2022/10/14 08:55:24;;;;;;;51.25;24.85;;;11.30;97.30;;;;;;5053277;28;20592;-75
2022/10/14 08:58:01;;;;;;;44.87;23.00;;;11.30;97.20;;;;;;5053824;28;20048;-75
2022/10/14 09:00:29;;;;;;;42.75;22.60;;;11.30;97.20;;;;;;5036819;28;20787;-74
2022/10/14 09:02:57;;;;;;;32.17;19.80;;;11.30;97.30;;;;;;5053271;28;20049;-76
2022/10/14 09:05:25;;;;;;;36.83;21.58;;;11.30;97.20;;;;;;5053321;28;20068;-74
2022/10/14 09:07:54;;;;;;;39.65;22.30;;;11.40;97.20;;;;;;5053400;28;20045;-75
2022/10/14 09:10:33;;;;;;;36.25;21.48;;;11.40;97.30;;;;;;5053190;28;20098;-74
2022/10/14 09:13:12;;;;;;;40.97;23.48;;;11.50;97.20;;;;;;5053510;28;20033;-74
2022/10/14 09:15:42;;;;;;;39.67;21.50;;;11.60;97.20;;;;;;5052936;28;20604;-77
2022/10/14 09:18:44;;;;;;;25.38;15.40;;;11.60;97.00;;;;;;5052952;28;20037;-76
2022/10/14 09:22:00;;;;;;;32.92;18.92;;;11.70;97.10;;;;;;5036322;28;20064;-76
2022/10/14 09:24:27;;;;;;;39.45;22.08;;;11.70;97.10;;;;;;5034816;28;20049;-75
2022/10/14 09:27:05;;;;;;;38.72;21.15;;;11.80;97.20;;;;;;5052799;28;20106;-76
2022/10/14 09:29:57;;;;;;;37.70;21.73;;;11.80;97.10;;;;;;5052800;28;20048;-75
2022/10/14 09:32:34;;;;;;;48.08;23.23;;;11.80;97.10;;;;;;5036375;28;20424;-76
2022/10/14 09:35:01;;;;;;;43.15;22.58;;;11.80;97.10;;;;;;5052608;28;20043;-75
2022/10/14 09:37:36;;;;;;;56.28;25.08;;;11.80;97.10;;;;;;5035991;28;20037;-75
2022/10/14 09:40:28;;;;;;;50.60;23.75;;;11.80;97.10;;;;;;5052741;28;20454;-76
2022/10/14 09:43:09;;;;;;;42.78;21.27;;;11.90;97.10;;;;;;5030452;28;20045;-78
2022/10/14 09:45:56;;;;;;;47.72;22.92;;;11.90;97.20;;;;;;5052619;28;20041;-75
2022/10/14 09:48:41;;;;;;;55.90;25.50;;;11.90;97.10;;;;;;5052159;28;20190;-72
2022/10/14 09:51:09;;;;;;;55.15;23.70;;;12.00;97.20;;;;;;5052205;28;20064;-76
2022/10/14 09:53:45;;;;;;;57.95;24.75;;;12.00;97.40;;;;;;5052510;28;20169;-74
2022/10/14 09:56:12;;;;;;;53.60;24.95;;;12.00;97.40;;;;;;5035944;28;20410;-74
2022/10/14 09:58:52;;;;;;;54.53;25.02;;;12.00;97.40;;;;;;5052159;28;20045;-75
2022/10/14 10:01:36;;;;;;;49.05;23.48;;;12.00;97.40;;;;;;5052448;28;20420;-75
2022/10/14 10:04:30;;;;;;;51.90;23.65;;;12.10;97.40;;;;;;5035713;28;20127;-75
2022/10/14 10:06:57;;;;;;;38.70;20.70;;;12.10;97.30;;;;;;5051578;28;20078;-77
2022/10/14 10:09:23;;;;;;;36.33;18.23;;;12.10;97.40;;;;;;5051942;28;20045;-78
2022/10/14 10:11:49;;;;;;;46.60;21.33;;;12.20;97.30;;;;;;5051890;28;20057;-75
2022/10/14 10:14:22;;;;;;;43.45;21.25;;;12.20;97.30;;;;;;5052122;28;20158;-75
2022/10/14 10:16:49;;;;;;;48.78;23.23;;;12.30;97.40;;;;;;5052091;28;20044;-76
2022/10/14 10:19:28;;;;;;;39.75;19.83;;;12.30;97.30;;;;;;5035490;28;20439;-76
2022/10/14 10:22:13;;;;;;;34.90;18.42;;;12.40;97.30;;;;;;5051912;28;20041;-74
2022/10/14 10:24:39;;;;;;;35.30;17.42;;;12.40;97.30;;;;;;5051958;28;20201;-73
2022/10/14 10:27:38;;;;;;;31.48;17.67;;;12.40;97.30;;;;;;5051797;28;20508;-75
2022/10/14 10:30:16;;;;;;;29.33;16.13;;;12.50;97.20;;;;;;5051544;28;20045;-77
2022/10/14 10:32:53;;;;;;;28.90;15.88;;;12.50;97.20;;;;;;5051916;28;20072;-75
2022/10/14 10:35:31;;;;;;;63.53;42.45;;;12.50;97.20;;;;;;5035263;28;20194;-78
2022/10/14 10:38:16;;;;;;;39.30;20.60;;;12.60;97.00;;;;;;5051766;28;20045;-77
2022/10/14 10:41:03;;;;;;;25.55;14.45;;;12.60;97.20;;;;;;5035081;28;20094;-79
2022/10/14 10:43:48;;;;;;;31.67;17.40;;;12.60;97.00;;;;;;5051872;28;20114;-77
2022/10/14 10:46:25;;;;;;;25.92;15.52;;;12.70;97.20;;;;;;5051527;28;20049;-74
2022/10/14 10:49:16;;;;;;;31.85;16.63;;;12.80;97.30;;;;;;5051302;28;20509;-75
2022/10/14 10:52:19;;;;;;;23.95;16.35;;;12.90;97.60;;;;;;5051379;28;20045;-76
2022/10/14 10:55:12;;;;;;;23.50;12.23;;;13.00;97.50;;;;;;5051394;28;20037;-75
2022/10/14 10:57:44;;;;;;;20.45;13.15;;;13.00;97.60;;;;;;5051477;28;20052;-76
2022/10/14 11:00:19;;;;;;;18.60;11.38;;;13.00;97.60;;;;;;5051837;28;20056;-75
2022/10/14 11:03:07;;;;;;;22.73;17.15;;;13.00;97.50;;;;;;5035494;28;20045;-75
2022/10/14 11:05:41;;;;;;;21.10;11.40;;;13.00;97.60;;;;;;5051325;28;20041;-77
2022/10/14 11:14:27;;;;;;;19.00;11.45;;;13.00;97.80;;;;;;5051325;28;20043;-76
2022/10/14 11:17:12;;;;;;;19.33;10.68;;;13.00;97.80;;;;;;5051261;28;20073;-76
2022/10/14 11:19:44;;;;;;;;;;;13.00;97.80;;;;;;5054615;28;20052;-75
2022/10/14 11:22:43;;;;;;;16.35;9.73;;;13.00;97.90;;;;;;5055396;28;19921;-76
2022/10/14 11:25:23;;;;;;;17.67;9.65;;;13.00;97.90;;;;;;5038446;28;20056;-76
2022/10/14 11:27:59;;;;;;;17.50;10.35;;;12.90;97.80;;;;;;5038516;28;20040;-76
2022/10/14 11:30:44;;;;;;;15.77;9.30;;;12.90;97.80;;;;;;5038598;28;20045;-75
2022/10/14 11:33:22;;;;;;;15.68;9.95;;;12.90;97.80;;;;;;5038362;28;20072;-75
2022/10/14 11:36:13;;;;;;;16.20;9.75;;;12.90;97.90;;;;;;5038521;28;20033;-75
2022/10/14 11:38:38;;;;;;;15.57;9.98;;;12.90;97.90;;;;;;5054927;28;20135;-75
2022/10/14 11:41:22;;;;;;;16.70;9.68;;;12.90;98.00;;;;;;5055103;28;20033;-75
2022/10/14 11:44:15;;;;;;;16.08;9.95;;;12.90;98.00;;;;;;5054929;28;20037;-75
2022/10/14 11:46:46;;;;;;;21.02;10.05;;;12.90;98.00;;;;;;5054704;28;20052;-80
2022/10/14 11:49:24;;;;;;;13.93;9.10;;;12.90;98.00;;;;;;5038046;28;20072;-78
2022/10/14 11:52:10;;;;;;;15.98;8.75;;;12.90;98.10;;;;;;5054507;28;20044;-78
2022/10/14 11:54:46;;;;;;;15.32;8.77;;;13.00;98.20;;;;;;5054802;28;20164;-78
2022/10/14 11:57:18;;;;;;;13.60;8.48;;;13.00;98.20;;;;;;5038164;28;20037;-77
2022/10/14 11:59:54;;;;;;;14.15;7.60;;;13.00;98.10;;;;;;5054495;28;20079;-77
2022/10/14 12:02:47;;;;;;;13.52;8.45;;;13.00;98.20;;;;;;5054391;28;20490;-79
2022/10/14 12:05:36;;;;;;;14.63;8.32;;;13.00;98.20;;;;;;5054252;28;20041;-76
2022/10/14 12:08:01;;;;;;;12.43;7.40;;;13.00;98.20;;;;;;5037580;28;20037;-79
2022/10/14 12:10:34;;;;;;;15.68;8.57;;;13.10;98.20;;;;;;5037498;28;20048;-76
2022/10/14 12:13:00;;;;;;;13.88;8.32;;;13.10;98.20;;;;;;5054469;28;20037;-79
2022/10/14 12:15:28;;;;;;;13.40;8.05;;;13.10;98.20;;;;;;5037856;28;20029;-77
2022/10/14 12:18:04;;;;;;;17.13;9.13;;;13.10;98.10;;;;;;5037877;28;20067;-78
2022/10/14 12:20:57;;;;;;;15.90;9.80;;;13.10;98.10;;;;;;5054177;28;20036;-76
2022/10/14 12:23:37;;;;;;;17.23;10.57;;;13.10;98.20;;;;;;5037287;28;20590;-79
2022/10/14 12:26:14;;;;;;;15.43;10.25;;;13.10;98.20;;;;;;5054240;28;20067;-79
2022/10/14 12:28:41;;;;;;;19.10;12.70;;;13.10;98.20;;;;;;5053983;28;20044;-75
2022/10/14 12:31:26;;;;;;;20.75;12.23;;;13.00;98.20;;;;;;5037256;28;20087;-78
2022/10/14 12:34:12;;;;;;;22.73;13.32;;;13.00;98.20;;;;;;5053948;28;20029;-78
2022/10/14 12:36:41;;;;;;;21.98;13.18;;;13.00;98.20;;;;;;5053601;28;20449;-78
2022/10/14 12:39:33;;;;;;;23.83;13.32;;;13.10;98.30;;;;;;5053937;28;20045;-77
2022/10/14 12:42:08;;;;;;;27.08;15.20;;;13.10;98.30;;;;;;5051988;28;20108;-77
2022/10/14 12:44:46;;;;;;;28.73;16.58;;;13.20;98.40;;;;;;5053806;28;20142;-76
2022/10/14 12:47:29;;;;;;;17.58;11.10;;;13.20;98.40;;;;;;5053610;28;20045;-76
2022/10/14 12:49:57;;;;;;;17.67;10.63;;;13.30;98.50;;;;;;5053438;28;20132;-78
2022/10/14 12:52:27;;;;;;;13.57;8.30;;;13.30;98.50;;;;;;5036829;28;20131;-78
2022/10/14 12:54:54;;;;;;;15.82;9.65;;;13.30;98.40;;;;;;5053321;28;20033;-77
2022/10/14 12:57:32;;;;;;;11.98;7.95;;;13.30;98.40;;;;;;5020512;28;20131;-79
2022/10/14 13:00:20;;;;;;;15.13;8.68;;;13.30;98.30;;;;;;5053306;28;20490;-79